createdAt,value
2023-12-16T00:00:52.024Z,0.00
2023-12-16T00:01:58.708Z,0.00
2023-12-16T00:02:51.984Z,0.00
2023-12-16T00:03:52.015Z,0.00
2023-12-16T00:04:52.099Z,0.00
2023-12-16T00:05:51.932Z,0.00
2023-12-16T00:06:51.940Z,0.00
2023-12-16T00:07:51.956Z,0.00
2023-12-16T00:08:51.957Z,0.00
2023-12-16T00:09:51.917Z,0.00
2023-12-16T00:10:54.702Z,0.00
2023-12-16T00:11:51.867Z,0.00
2023-12-16T00:12:51.892Z,0.00
2023-12-16T00:13:51.849Z,0.00
2023-12-16T00:14:51.853Z,0.00
2023-12-16T00:15:51.931Z,0.00
2023-12-16T00:16:51.828Z,0.00
2023-12-16T00:17:51.799Z,0.00
2023-12-16T00:18:51.948Z,0.00
2023-12-16T00:19:51.828Z,0.00
2023-12-16T00:20:51.785Z,0.00
2023-12-16T00:21:51.814Z,0.00
2023-12-16T00:22:51.770Z,0.00
2023-12-16T00:23:51.753Z,0.00
2023-12-16T00:24:51.764Z,0.00
2023-12-16T00:25:51.882Z,0.00
2023-12-16T00:26:51.726Z,0.00
2023-12-16T00:27:51.719Z,0.00
2023-12-16T00:28:51.796Z,0.00
2023-12-16T00:29:51.706Z,0.00
2023-12-16T00:30:51.778Z,0.00
2023-12-16T00:31:51.727Z,0.00
2023-12-16T00:32:51.787Z,0.00
2023-12-16T00:33:51.728Z,0.00
2023-12-16T00:34:51.673Z,0.00
2023-12-16T00:35:51.644Z,0.00
2023-12-16T00:36:51.678Z,0.00
2023-12-16T00:37:51.613Z,0.00
2023-12-16T00:38:51.672Z,0.00
2023-12-16T00:39:51.633Z,0.00
2023-12-16T00:40:51.578Z,0.00
2023-12-16T00:41:51.542Z,0.00
2023-12-16T00:42:51.580Z,0.00
2023-12-16T00:43:51.520Z,0.00
2023-12-16T00:44:51.574Z,0.00
2023-12-16T00:45:51.547Z,0.00
2023-12-16T00:46:51.543Z,0.00
2023-12-16T00:47:51.588Z,0.00
2023-12-16T00:48:51.615Z,0.00
2023-12-16T00:49:51.511Z,0.00
2023-12-16T00:50:51.477Z,0.00
2023-12-16T00:51:51.475Z,0.00
2023-12-16T00:52:51.444Z,0.00
2023-12-16T00:53:51.419Z,0.00
2023-12-16T00:54:51.453Z,0.00
2023-12-16T00:55:51.397Z,0.00
2023-12-16T00:56:51.451Z,0.00
2023-12-16T00:57:51.395Z,0.00
2023-12-16T00:58:51.391Z,0.00
2023-12-16T00:59:51.364Z,0.00
2023-12-16T01:00:51.452Z,0.00
2023-12-16T01:01:51.375Z,0.00
2023-12-16T01:02:51.372Z,0.00
2023-12-16T01:03:51.429Z,0.00
2023-12-16T01:04:51.329Z,0.00
2023-12-16T01:05:51.345Z,0.00
2023-12-16T01:06:51.320Z,0.00
2023-12-16T01:07:51.267Z,0.00
2023-12-16T01:08:51.284Z,0.00
2023-12-16T01:09:51.264Z,0.00
2023-12-16T01:10:51.251Z,0.00
2023-12-16T01:11:51.247Z,0.00
2023-12-16T01:12:51.262Z,0.00
2023-12-16T01:13:51.247Z,0.00
2023-12-16T01:14:51.213Z,0.00
2023-12-16T01:15:51.207Z,0.00
2023-12-16T01:16:51.184Z,0.00
2023-12-16T01:17:51.226Z,0.00
2023-12-16T01:18:51.543Z,0.00
2023-12-16T01:19:51.207Z,0.00
2023-12-16T01:20:51.175Z,0.00
2023-12-16T01:21:51.144Z,0.00
2023-12-16T01:22:51.139Z,0.00
2023-12-16T01:23:51.119Z,0.00
2023-12-16T01:24:51.221Z,0.00
2023-12-16T01:25:51.078Z,0.00
2023-12-16T01:26:51.081Z,0.00
2023-12-16T01:27:51.100Z,0.00
2023-12-16T01:28:51.085Z,0.00
2023-12-16T01:29:51.044Z,0.00
2023-12-16T01:30:51.210Z,0.00
2023-12-16T01:31:51.014Z,0.00
2023-12-16T01:32:51.058Z,0.00
2023-12-16T01:33:51.103Z,0.00
2023-12-16T01:34:51.008Z,0.00
2023-12-16T01:35:50.965Z,0.00
2023-12-16T01:36:51.049Z,0.00
2023-12-16T01:37:50.952Z,0.00
2023-12-16T01:38:50.959Z,0.00
2023-12-16T01:39:50.986Z,0.00
2023-12-16T01:40:50.997Z,0.00
2023-12-16T01:41:50.915Z,0.00
2023-12-16T01:42:51.038Z,0.00
2023-12-16T01:43:50.889Z,0.00
2023-12-16T01:44:50.892Z,0.00
2023-12-16T01:45:50.925Z,0.00
2023-12-16T01:46:50.976Z,0.00
2023-12-16T01:47:51.030Z,0.00
2023-12-16T01:48:51.041Z,0.00
2023-12-16T01:49:50.842Z,0.00
2023-12-16T01:50:50.834Z,0.00
2023-12-16T01:51:50.844Z,0.00
2023-12-16T01:52:50.826Z,0.00
2023-12-16T01:53:50.781Z,0.00
2023-12-16T01:54:50.834Z,0.00
2023-12-16T01:55:50.752Z,0.00
2023-12-16T01:56:50.770Z,0.00
2023-12-16T01:57:50.766Z,0.00
2023-12-16T01:58:50.744Z,0.00
2023-12-16T01:59:50.714Z,0.00
2023-12-16T02:00:50.845Z,0.00
2023-12-16T02:01:50.754Z,0.00
2023-12-16T02:02:50.694Z,0.00
2023-12-16T02:03:50.735Z,0.00
2023-12-16T02:04:50.733Z,0.00
2023-12-16T02:05:50.650Z,0.00
2023-12-16T02:06:50.818Z,0.00
2023-12-16T02:07:50.676Z,0.00
2023-12-16T02:08:50.640Z,0.00
2023-12-16T02:09:50.624Z,0.00
2023-12-16T02:10:50.630Z,0.00
2023-12-16T02:11:50.623Z,0.00
2023-12-16T02:12:50.667Z,0.00
2023-12-16T02:13:50.603Z,0.00
2023-12-16T02:14:50.593Z,0.00
2023-12-16T02:15:50.563Z,0.00
2023-12-16T02:16:50.581Z,0.00
2023-12-16T02:17:50.638Z,0.00
2023-12-16T02:18:50.695Z,0.00
2023-12-16T02:19:50.639Z,0.00
2023-12-16T02:20:50.534Z,0.00
2023-12-16T02:21:50.499Z,0.00
2023-12-16T02:22:50.514Z,0.00
2023-12-16T02:23:50.472Z,0.00
2023-12-16T02:24:50.614Z,0.00
2023-12-16T02:25:50.473Z,0.00
2023-12-16T02:26:50.478Z,0.00
2023-12-16T02:27:50.466Z,0.00
2023-12-16T02:28:50.513Z,0.00
2023-12-16T02:29:50.401Z,0.00
2023-12-16T07:00:49.204Z,3.00
2023-12-16T07:01:50.073Z,3.00
2023-12-16T07:02:49.955Z,5.00
2023-12-16T07:03:49.958Z,5.00
2023-12-16T07:04:50.184Z,8.00
2023-12-16T07:05:49.922Z,4.00
2023-12-16T07:06:49.903Z,10.00
2023-12-16T07:07:49.864Z,11.00
2023-12-16T07:08:49.901Z,14.00
2023-12-16T07:09:49.920Z,16.00
2023-12-16T07:10:49.836Z,15.00
2023-12-16T07:11:49.824Z,17.00
2023-12-16T07:12:49.852Z,17.00
2023-12-16T07:13:49.792Z,24.00
2023-12-16T07:14:49.842Z,27.00
2023-12-16T07:15:49.836Z,30.00
2023-12-16T07:16:51.516Z,33.00
2023-12-16T07:17:49.821Z,35.00
2023-12-16T07:18:49.855Z,36.00
2023-12-16T07:19:49.893Z,39.00
2023-12-16T07:20:49.711Z,41.00
2023-12-16T07:21:49.771Z,42.00
2023-12-16T07:22:49.700Z,44.00
2023-12-16T07:23:49.699Z,48.00
2023-12-16T07:24:49.702Z,53.00
2023-12-16T07:25:49.715Z,61.00
2023-12-16T07:26:49.659Z,64.00
2023-12-16T07:27:49.732Z,67.00
2023-12-16T07:28:49.630Z,68.00
2023-12-16T07:29:49.643Z,74.00
2023-12-16T07:30:49.819Z,79.00
2023-12-16T07:31:49.899Z,81.00
2023-12-16T07:32:49.708Z,83.00
2023-12-16T07:33:49.730Z,86.00
2023-12-16T07:34:49.674Z,91.00
2023-12-16T07:35:50.587Z,103.00
2023-12-16T07:36:49.604Z,106.00
2023-12-16T07:37:49.546Z,112.00
2023-12-16T07:38:49.533Z,113.00
2023-12-16T07:39:49.590Z,119.00
2023-12-16T07:40:49.508Z,121.00
2023-12-16T07:41:49.505Z,117.00
2023-12-16T07:42:49.533Z,119.00
2023-12-16T07:43:49.484Z,136.00
2023-12-16T07:44:49.477Z,134.00
2023-12-16T07:45:49.465Z,132.00
2023-12-16T07:46:49.449Z,146.00
2023-12-16T07:47:49.538Z,147.00
2023-12-16T07:48:49.595Z,150.00
2023-12-16T07:49:49.536Z,157.00
2023-12-16T07:50:49.394Z,160.00
2023-12-16T07:51:49.443Z,161.00
2023-12-16T07:52:49.380Z,160.00
2023-12-16T07:53:49.480Z,181.00
2023-12-16T07:54:49.370Z,180.00
2023-12-16T07:55:49.357Z,202.00
2023-12-16T07:56:49.327Z,197.00
2023-12-16T07:57:49.359Z,209.00
2023-12-16T07:58:49.309Z,212.00
2023-12-16T07:59:51.456Z,208.00
2023-12-16T08:00:49.509Z,223.00
2023-12-16T08:01:49.391Z,213.00
2023-12-16T08:02:49.261Z,214.00
2023-12-16T08:03:49.436Z,214.00
2023-12-16T08:04:49.263Z,214.00
2023-12-16T08:05:49.342Z,219.00
2023-12-16T08:06:49.471Z,228.00
2023-12-16T08:07:49.232Z,225.00
2023-12-16T08:08:49.239Z,230.00
2023-12-16T08:09:49.276Z,241.00
2023-12-16T08:10:49.260Z,260.00
2023-12-16T08:11:49.183Z,254.00
2023-12-16T08:12:49.181Z,282.00
2023-12-16T08:13:49.162Z,285.00
2023-12-16T08:14:49.178Z,267.00
2023-12-16T08:15:49.184Z,299.00
2023-12-16T08:16:49.147Z,281.00
2023-12-16T08:17:49.348Z,276.00
2023-12-16T08:18:49.241Z,288.00
2023-12-16T08:19:49.136Z,298.00
2023-12-16T08:20:49.104Z,294.00
2023-12-16T08:21:49.174Z,335.00
2023-12-16T08:22:49.104Z,328.00
2023-12-16T08:23:49.104Z,318.00
2023-12-16T08:24:49.167Z,349.00
2023-12-16T08:25:49.044Z,380.00
2023-12-16T08:26:51.626Z,365.00
2023-12-16T08:27:49.102Z,438.00
2023-12-16T08:28:49.014Z,391.00
2023-12-16T08:29:49.017Z,423.00
2023-12-16T08:30:49.070Z,409.00
2023-12-16T08:31:49.075Z,442.00
2023-12-16T08:32:49.036Z,414.00
2023-12-16T08:33:49.093Z,441.00
2023-12-16T08:34:49.030Z,432.00
2023-12-16T08:35:48.983Z,428.00
2023-12-16T08:36:48.992Z,433.00
2023-12-16T08:37:48.920Z,430.00
2023-12-16T08:38:48.935Z,470.00
2023-12-16T08:39:48.998Z,456.00
2023-12-16T08:40:48.892Z,484.00
2023-12-16T08:41:48.868Z,480.00
2023-12-16T08:42:55.017Z,483.00
2023-12-16T08:43:48.847Z,474.00
2023-12-16T08:44:48.848Z,491.00
2023-12-16T08:45:48.830Z,488.00
2023-12-16T08:46:48.832Z,451.00
2023-12-16T08:47:48.843Z,450.00
2023-12-16T08:48:48.881Z,463.00
2023-12-16T08:49:48.976Z,470.00
2023-12-16T08:50:48.853Z,458.00
2023-12-16T08:51:48.769Z,474.00
2023-12-16T08:52:48.868Z,482.00
2023-12-16T08:53:48.764Z,499.00
2023-12-16T08:54:48.774Z,484.00
2023-12-16T08:55:48.815Z,452.00
2023-12-16T08:56:48.744Z,497.00
2023-12-16T08:57:48.705Z,470.00
2023-12-16T08:58:48.697Z,476.00
2023-12-16T08:59:48.731Z,463.00
2023-12-16T09:00:48.738Z,462.00
2023-12-16T09:01:48.700Z,456.00
2023-12-16T09:02:48.649Z,485.00
2023-12-16T09:03:48.702Z,484.00
2023-12-16T09:04:48.724Z,483.00
2023-12-16T09:05:48.721Z,481.00
2023-12-16T09:06:48.647Z,488.00
2023-12-16T09:07:48.590Z,485.00
2023-12-16T09:08:48.609Z,502.00
2023-12-16T09:09:48.662Z,525.00
2023-12-16T09:10:48.583Z,551.00
2023-12-16T09:11:48.551Z,526.00
2023-12-16T09:12:48.636Z,520.00
2023-12-16T09:13:48.534Z,574.00
2023-12-16T09:14:48.621Z,557.00
2023-12-16T09:15:48.500Z,561.00
2023-12-16T09:16:48.517Z,572.00
2023-12-16T09:17:48.671Z,574.00
2023-12-16T09:18:48.594Z,590.00
2023-12-16T09:19:48.618Z,594.00
2023-12-16T09:20:48.476Z,579.00
2023-12-16T09:21:48.435Z,599.00
2023-12-16T09:22:48.456Z,643.00
2023-12-16T09:23:48.428Z,603.00
2023-12-16T09:24:48.559Z,630.00
2023-12-16T09:25:48.441Z,665.00
2023-12-16T09:26:48.400Z,686.00
2023-12-16T09:27:48.381Z,705.00
2023-12-16T09:28:48.489Z,702.00
2023-12-16T09:29:48.375Z,698.00
2023-12-16T09:30:48.453Z,680.00
2023-12-16T09:31:48.344Z,745.00
2023-12-16T09:32:48.440Z,676.00
2023-12-16T09:33:48.572Z,681.00
2023-12-16T09:34:48.442Z,702.00
2023-12-16T09:35:48.362Z,753.00
2023-12-16T09:36:48.324Z,737.00
2023-12-16T09:37:48.272Z,713.00
2023-12-16T09:38:48.317Z,767.00
2023-12-16T09:39:48.308Z,745.00
2023-12-16T09:40:48.258Z,697.00
2023-12-16T09:41:48.257Z,707.00
2023-12-16T09:42:48.259Z,694.00
2023-12-16T09:43:48.211Z,689.00
2023-12-16T09:44:48.297Z,712.00
2023-12-16T09:45:48.310Z,701.00
2023-12-16T09:46:48.192Z,690.00
2023-12-16T09:47:48.235Z,711.00
2023-12-16T09:48:48.231Z,705.00
2023-12-16T09:49:48.288Z,766.00
2023-12-16T09:50:48.170Z,820.00
2023-12-16T09:51:48.127Z,923.00
2023-12-16T09:52:48.135Z,854.00
2023-12-16T09:53:48.168Z,824.00
2023-12-16T09:54:48.193Z,862.00
2023-12-16T09:55:49.318Z,803.00
2023-12-16T09:56:48.096Z,899.00
2023-12-16T09:57:48.097Z,892.00
2023-12-16T09:58:48.066Z,930.00
2023-12-16T09:59:48.152Z,911.00
2023-12-16T10:00:48.220Z,856.00
2023-12-16T10:01:48.086Z,887.00
2023-12-16T10:02:48.047Z,889.00
2023-12-16T10:03:48.041Z,875.00
2023-12-16T10:04:48.086Z,893.00
2023-12-16T10:05:48.127Z,871.00
2023-12-16T10:06:47.981Z,892.00
2023-12-16T10:07:47.979Z,871.00
2023-12-16T10:08:47.945Z,855.00
2023-12-16T10:09:48.212Z,843.00
2023-12-16T10:10:54.354Z,871.00
2023-12-16T10:11:47.957Z,827.00
2023-12-16T10:12:47.910Z,886.00
2023-12-16T10:13:47.882Z,880.00
2023-12-16T10:14:47.919Z,896.00
2023-12-16T10:15:47.901Z,874.00
2023-12-16T10:16:47.876Z,866.00
2023-12-16T10:17:47.978Z,913.00
2023-12-16T10:18:47.882Z,858.00
2023-12-16T10:19:48.781Z,842.00
2023-12-16T10:20:47.835Z,866.00
2023-12-16T10:21:47.821Z,890.00
2023-12-16T10:22:47.886Z,899.00
2023-12-16T10:23:47.812Z,879.00
2023-12-16T10:24:47.797Z,934.00
2023-12-16T10:25:47.787Z,942.00
2023-12-16T10:26:47.791Z,952.00
2023-12-16T10:27:47.769Z,980.00
2023-12-16T10:28:47.786Z,989.00
2023-12-16T10:29:58.195Z,985.00
2023-12-16T10:30:47.778Z,1026.00
2023-12-16T10:31:47.752Z,1081.00
2023-12-16T10:32:47.849Z,1039.00
2023-12-16T10:33:47.886Z,1078.00
2023-12-16T10:34:47.741Z,1015.00
2023-12-16T10:35:47.672Z,1059.00
2023-12-16T10:36:47.658Z,1018.00
2023-12-16T10:37:47.631Z,1023.00
2023-12-16T10:38:47.646Z,1012.00
2023-12-16T10:39:47.673Z,1085.00
2023-12-16T10:40:47.650Z,1009.00
2023-12-16T10:41:47.592Z,986.00
2023-12-16T10:42:47.603Z,992.00
2023-12-16T10:43:47.564Z,1105.00
2023-12-16T10:44:47.656Z,957.00
2023-12-16T10:45:47.615Z,1022.00
2023-12-16T10:46:47.544Z,995.00
2023-12-16T10:47:47.939Z,1028.00
2023-12-16T10:48:47.592Z,947.00
2023-12-16T10:49:47.636Z,1006.00
2023-12-16T10:50:47.542Z,954.00
2023-12-16T10:51:47.537Z,954.00
2023-12-16T10:52:47.485Z,1037.00
2023-12-16T10:53:47.466Z,1033.00
2023-12-16T10:54:47.581Z,968.00
2023-12-16T10:55:47.567Z,1036.00
2023-12-16T10:56:47.536Z,956.00
2023-12-16T10:57:47.556Z,1085.00
2023-12-16T10:58:47.418Z,1170.00
2023-12-16T10:59:47.514Z,920.00
2023-12-16T11:00:47.469Z,1078.00
2023-12-16T11:01:47.703Z,1011.00
2023-12-16T11:02:47.449Z,1065.00
2023-12-16T11:03:47.416Z,1068.00
2023-12-16T11:04:47.367Z,1091.00
2023-12-16T11:05:47.374Z,1045.00
2023-12-16T11:06:47.354Z,1143.00
2023-12-16T11:07:47.380Z,1142.00
2023-12-16T11:08:47.341Z,1169.00
2023-12-16T11:09:47.891Z,1031.00
2023-12-16T11:10:47.388Z,1213.00
2023-12-16T11:11:47.291Z,1189.00
2023-12-16T11:12:47.301Z,1079.00
2023-12-16T11:13:47.259Z,1010.00
2023-12-16T11:14:47.414Z,1133.00
2023-12-16T11:15:47.287Z,1093.00
2023-12-16T11:16:47.238Z,989.00
2023-12-16T11:17:47.257Z,1022.00
2023-12-16T11:18:47.228Z,1147.00
2023-12-16T11:19:47.363Z,1144.00
2023-12-16T11:20:47.287Z,1043.00
2023-12-16T11:21:47.186Z,1105.00
2023-12-16T11:22:47.180Z,991.00
2023-12-16T11:23:47.302Z,1057.00
2023-12-16T11:24:47.178Z,1120.00
2023-12-16T11:25:47.411Z,1127.00
2023-12-16T11:26:47.166Z,1097.00
2023-12-16T11:27:47.128Z,1026.00
2023-12-16T11:28:47.118Z,1089.00
2023-12-16T11:29:47.112Z,983.00
2023-12-16T11:30:47.194Z,833.00
2023-12-16T11:31:47.145Z,989.00
2023-12-16T11:32:47.207Z,1070.00
2023-12-16T11:33:47.141Z,1015.00
2023-12-16T11:34:47.084Z,1152.00
2023-12-16T11:35:47.313Z,1111.00
2023-12-16T11:36:47.135Z,1165.00
2023-12-16T11:37:47.006Z,1141.00
2023-12-16T11:38:47.031Z,1123.00
2023-12-16T11:39:46.988Z,1167.00
2023-12-16T11:40:47.026Z,1190.00
2023-12-16T11:41:46.968Z,1204.00
2023-12-16T11:42:46.971Z,1160.00
2023-12-16T11:43:46.978Z,1042.00
2023-12-16T11:44:46.951Z,1214.00
2023-12-16T11:45:46.956Z,1214.00
2023-12-16T11:46:46.959Z,1128.00
2023-12-16T11:47:46.916Z,1183.00
2023-12-16T11:48:46.919Z,1177.00
2023-12-16T11:49:47.001Z,1180.00
2023-12-16T11:50:47.026Z,1181.00
2023-12-16T11:51:46.860Z,1247.00
2023-12-16T11:52:46.933Z,1191.00
2023-12-16T11:53:46.823Z,1207.00
2023-12-16T11:54:46.898Z,1185.00
2023-12-16T11:55:47.023Z,1220.00
2023-12-16T11:56:46.819Z,1184.00
2023-12-16T11:57:46.788Z,1323.00
2023-12-16T11:58:46.796Z,1227.00
2023-12-16T11:59:46.791Z,1313.00
2023-12-16T12:00:46.823Z,1180.00
2023-12-16T12:01:46.851Z,1187.00
2023-12-16T12:02:46.761Z,1081.00
2023-12-16T12:03:46.768Z,1203.00
2023-12-16T12:04:46.864Z,1166.00
2023-12-16T12:05:46.931Z,1193.00
2023-12-16T12:06:46.721Z,1182.00
2023-12-16T12:07:46.819Z,1178.00
2023-12-16T12:08:46.695Z,1205.00
2023-12-16T12:09:46.655Z,1217.00
2023-12-16T12:10:46.729Z,1127.00
2023-12-16T12:11:46.641Z,1065.00
2023-12-16T12:12:46.760Z,1202.00
2023-12-16T12:13:46.634Z,1183.00
2023-12-16T12:14:46.810Z,1162.00
2023-12-16T12:15:46.617Z,1199.00
2023-12-16T12:16:46.612Z,1143.00
2023-12-16T12:17:46.656Z,1121.00
2023-12-16T12:18:46.671Z,1119.00
2023-12-16T12:19:46.592Z,1120.00
2023-12-16T12:20:46.569Z,1251.00
2023-12-16T12:21:46.574Z,1141.00
2023-12-16T12:22:46.673Z,1111.00
2023-12-16T12:23:46.504Z,870.00
2023-12-16T12:24:46.552Z,1279.00
2023-12-16T12:25:46.524Z,1108.00
2023-12-16T12:26:46.508Z,1099.00
2023-12-16T12:27:46.465Z,1171.00
2023-12-16T12:28:46.472Z,1086.00
2023-12-16T12:29:46.484Z,1022.00
2023-12-16T12:30:46.501Z,1008.00
2023-12-16T12:31:46.458Z,1036.00
2023-12-16T12:32:46.493Z,1256.00
2023-12-16T12:33:46.595Z,1230.00
2023-12-16T12:34:46.578Z,1254.00
2023-12-16T12:35:46.414Z,1127.00
2023-12-16T12:36:46.501Z,1014.00
2023-12-16T12:37:46.553Z,954.00
2023-12-16T12:38:46.380Z,911.00
2023-12-16T12:39:46.383Z,808.00
2023-12-16T12:40:46.357Z,740.00
2023-12-16T12:41:46.406Z,690.00
2023-12-16T12:42:46.378Z,660.00
2023-12-16T12:43:46.338Z,656.00
2023-12-16T12:44:46.331Z,652.00
2023-12-16T12:45:46.316Z,631.00
2023-12-16T12:46:46.285Z,622.00
2023-12-16T12:47:46.368Z,587.00
2023-12-16T12:48:46.400Z,785.00
2023-12-16T12:49:46.332Z,751.00
2023-12-16T12:50:46.271Z,783.00
2023-12-16T12:51:46.238Z,740.00
2023-12-16T12:53:17.971Z,721.00
2023-12-16T12:53:46.296Z,699.00
2023-12-16T12:54:46.211Z,653.00
2023-12-16T12:55:46.230Z,701.00
2023-12-16T12:56:46.196Z,852.00
2023-12-16T12:57:46.167Z,844.00
2023-12-16T12:58:46.180Z,793.00
2023-12-16T12:59:59.930Z,765.00
2023-12-16T13:00:46.215Z,743.00
2023-12-16T13:01:46.154Z,835.00
2023-12-16T13:02:46.159Z,807.00
2023-12-16T13:03:46.110Z,850.00
2023-12-16T13:04:47.695Z,849.00
2023-12-16T13:05:46.284Z,877.00
2023-12-16T13:06:46.175Z,856.00
2023-12-16T13:07:46.089Z,840.00
2023-12-16T13:08:46.073Z,825.00
2023-12-16T13:09:46.202Z,847.00
2023-12-16T13:10:46.079Z,877.00
2023-12-16T13:11:46.038Z,854.00
2023-12-16T13:12:46.010Z,840.00
2023-12-16T13:13:46.022Z,888.00
2023-12-16T13:14:46.107Z,932.00
2023-12-16T13:15:54.413Z,944.00
2023-12-16T13:16:46.070Z,1012.00
2023-12-16T13:17:46.094Z,1065.00
2023-12-16T13:18:46.180Z,1069.00
2023-12-16T13:19:45.978Z,1049.00
2023-12-16T13:20:45.962Z,1026.00
2023-12-16T13:21:45.974Z,1006.00
2023-12-16T13:22:45.902Z,1010.00
2023-12-16T13:23:45.988Z,998.00
2023-12-16T13:24:45.899Z,990.00
2023-12-16T13:25:45.902Z,984.00
2023-12-16T13:26:45.864Z,995.00
2023-12-16T13:27:45.873Z,1002.00
2023-12-16T13:28:45.835Z,985.00
2023-12-16T13:29:45.858Z,972.00
2023-12-16T13:30:45.920Z,967.00
2023-12-16T13:31:45.832Z,966.00
2023-12-16T13:32:45.923Z,952.00
2023-12-16T13:33:45.969Z,936.00
2023-12-16T13:34:45.780Z,914.00
2023-12-16T13:35:45.840Z,881.00
2023-12-16T13:36:50.475Z,855.00
2023-12-16T13:37:45.775Z,831.00
2023-12-16T13:38:45.816Z,807.00
2023-12-16T13:39:45.729Z,786.00
2023-12-16T13:40:51.786Z,763.00
2023-12-16T13:41:45.763Z,753.00
2023-12-16T13:42:45.682Z,726.00
2023-12-16T13:43:45.672Z,712.00
2023-12-16T13:44:45.731Z,698.00
2023-12-16T13:45:45.735Z,688.00
2023-12-16T13:46:45.630Z,652.00
2023-12-16T13:47:45.885Z,618.00
2023-12-16T13:48:45.767Z,590.00
2023-12-16T13:49:45.671Z,565.00
2023-12-16T13:50:45.680Z,542.00
2023-12-16T13:51:45.616Z,520.00
2023-12-16T13:52:45.577Z,506.00
2023-12-16T13:53:45.732Z,491.00
2023-12-16T13:54:45.618Z,482.00
2023-12-16T13:55:45.594Z,471.00
2023-12-16T13:56:45.587Z,465.00
2023-12-16T13:57:45.612Z,453.00
2023-12-16T13:58:45.511Z,447.00
2023-12-16T13:59:45.611Z,441.00
2023-12-16T14:00:45.521Z,435.00
2023-12-16T14:01:45.490Z,433.00
2023-12-16T14:02:45.505Z,426.00
2023-12-16T14:03:45.736Z,422.00
2023-12-16T14:04:45.445Z,413.00
2023-12-16T14:05:45.514Z,401.00
2023-12-16T14:06:45.513Z,398.00
2023-12-16T14:07:45.616Z,397.00
2023-12-16T14:08:45.512Z,400.00
2023-12-16T14:09:45.408Z,405.00
2023-12-16T14:10:45.413Z,409.00
2023-12-16T14:11:45.438Z,409.00
2023-12-16T14:12:45.357Z,406.00
2023-12-16T14:13:45.371Z,400.00
2023-12-16T14:14:45.510Z,395.00
2023-12-16T14:15:45.373Z,385.00
2023-12-16T14:16:45.345Z,372.00
2023-12-16T14:17:45.387Z,360.00
2023-12-16T14:18:45.442Z,356.00
2023-12-16T14:19:45.386Z,351.00
2023-12-16T14:20:45.344Z,351.00
2023-12-16T14:21:45.266Z,350.00
2023-12-16T14:22:45.265Z,347.00
2023-12-16T14:23:45.321Z,347.00
2023-12-16T14:24:45.226Z,348.00
2023-12-16T14:25:45.289Z,350.00
2023-12-16T14:26:45.267Z,351.00
2023-12-16T14:27:45.228Z,354.00
2023-12-16T14:28:45.198Z,353.00
2023-12-16T14:29:45.223Z,354.00
2023-12-16T14:30:45.221Z,351.00
2023-12-16T14:31:45.316Z,343.00
2023-12-16T14:32:45.275Z,336.00
2023-12-16T14:33:45.331Z,330.00
2023-12-16T14:34:45.542Z,322.00
2023-12-16T14:35:45.186Z,316.00
2023-12-16T14:36:45.107Z,312.00
2023-12-16T14:37:45.127Z,305.00
2023-12-16T14:38:45.116Z,296.00
2023-12-16T14:39:45.098Z,285.00
2023-12-16T14:40:45.082Z,278.00
2023-12-16T14:41:45.096Z,272.00
2023-12-16T14:42:45.087Z,270.00
2023-12-16T14:43:45.064Z,270.00
2023-12-16T14:44:45.055Z,269.00
2023-12-16T14:45:45.044Z,265.00
2023-12-16T14:46:45.019Z,269.00
2023-12-16T14:47:45.082Z,269.00
2023-12-16T14:48:45.110Z,265.00
2023-12-16T14:49:45.013Z,258.00
2023-12-16T14:50:45.040Z,250.00
2023-12-16T14:51:44.967Z,243.00
2023-12-16T14:52:44.960Z,234.00
2023-12-16T14:53:44.951Z,230.00
2023-12-16T14:54:44.979Z,224.00
2023-12-16T14:55:44.926Z,223.00
2023-12-16T14:56:44.963Z,214.00
2023-12-16T14:57:44.903Z,208.00
2023-12-16T14:58:44.888Z,205.00
2023-12-16T14:59:44.949Z,201.00
2023-12-16T15:00:44.951Z,197.00
2023-12-16T15:01:44.846Z,193.00
2023-12-16T15:02:44.911Z,181.00
2023-12-16T15:03:44.985Z,175.00
2023-12-16T15:04:44.831Z,166.00
2023-12-16T15:05:44.948Z,164.00
2023-12-16T15:06:44.844Z,155.00
2023-12-16T15:07:44.956Z,148.00
2023-12-16T15:08:44.823Z,147.00
2023-12-16T15:09:44.793Z,139.00
2023-12-16T15:10:44.762Z,132.00
2023-12-16T15:11:44.794Z,123.00
2023-12-16T15:12:44.717Z,122.00
2023-12-16T15:13:44.747Z,114.00
2023-12-16T15:14:44.728Z,107.00
2023-12-16T15:15:44.765Z,105.00
2023-12-16T15:16:44.726Z,97.00
2023-12-16T15:17:45.106Z,89.00
2023-12-16T15:18:44.764Z,83.00
2023-12-16T15:19:44.766Z,82.00
2023-12-16T15:20:44.728Z,74.00
2023-12-16T15:21:44.643Z,67.00
2023-12-16T15:22:44.629Z,58.00
2023-12-16T15:23:44.680Z,52.00
2023-12-16T15:24:44.597Z,53.00
2023-12-16T15:25:44.607Z,49.00
2023-12-16T15:26:44.615Z,45.00
2023-12-16T15:27:44.583Z,41.00
2023-12-16T15:28:47.111Z,39.00
2023-12-16T15:29:44.598Z,36.00
2023-12-16T15:30:44.567Z,33.00
2023-12-16T15:31:44.549Z,30.00
2023-12-16T15:32:44.724Z,28.00
2023-12-16T15:33:44.708Z,26.00
2023-12-16T15:34:45.001Z,21.00
2023-12-16T15:35:44.718Z,15.00
2023-12-16T15:36:44.493Z,14.00
2023-12-16T15:37:44.515Z,14.00
2023-12-16T15:38:44.562Z,14.00
2023-12-16T15:39:44.460Z,10.00
2023-12-16T15:40:44.659Z,9.00
2023-12-16T15:41:44.514Z,4.00
2023-12-16T15:42:44.505Z,5.00
2023-12-16T15:43:44.543Z,7.00
2023-12-16T15:44:44.473Z,7.00
2023-12-16T15:45:44.383Z,8.00
2023-12-16T15:46:44.369Z,2.00
2023-12-16T15:47:44.719Z,1.00
2023-12-16T15:48:44.476Z,1.00
2023-12-16T15:49:44.473Z,4.00
2023-12-16T15:50:44.369Z,5.00
2023-12-16T15:51:44.339Z,2.00
2023-12-16T15:52:44.301Z,2.00
2023-12-16T15:53:44.378Z,1.00
2023-12-16T15:54:44.282Z,1.00
2023-12-16T15:55:44.383Z,0.00
2023-12-16T15:56:44.487Z,0.00
2023-12-16T15:57:44.262Z,1.00
2023-12-16T15:58:44.248Z,1.00
2023-12-16T15:59:44.262Z,1.00
2023-12-16T16:00:44.319Z,0.00
2023-12-16T16:01:44.325Z,0.00
2023-12-16T16:02:44.263Z,0.00
2023-12-16T16:03:44.313Z,0.00
2023-12-16T16:04:44.240Z,0.00
2023-12-16T16:05:44.345Z,0.00
2023-12-16T16:06:44.214Z,0.00
2023-12-16T16:07:44.244Z,0.00
2023-12-16T16:08:44.224Z,0.00
2023-12-16T16:09:44.199Z,0.00
2023-12-16T16:10:44.209Z,0.00
2023-12-16T16:11:44.197Z,0.00
2023-12-16T16:12:44.154Z,0.00
2023-12-16T16:13:44.167Z,0.00
2023-12-16T16:14:44.159Z,0.00
2023-12-16T16:15:44.188Z,0.00
2023-12-16T16:16:44.101Z,0.00
2023-12-16T16:17:44.811Z,0.00
2023-12-16T16:18:44.158Z,0.00
2023-12-16T16:19:44.236Z,0.00
2023-12-16T16:20:44.097Z,0.00
2023-12-16T16:21:44.068Z,0.00
2023-12-16T16:22:44.059Z,0.00
2023-12-16T16:23:44.105Z,0.00
2023-12-16T16:24:44.065Z,0.00
2023-12-16T16:25:44.164Z,0.00
2023-12-16T16:26:44.016Z,0.00
2023-12-16T16:27:44.447Z,0.00
2023-12-16T16:28:43.981Z,0.00
2023-12-16T16:29:44.038Z,0.00
2023-12-16T16:30:44.031Z,0.00
2023-12-16T16:31:43.988Z,0.00
2023-12-16T16:32:44.035Z,0.00
2023-12-16T16:33:44.098Z,0.00
2023-12-16T16:34:43.943Z,0.00
2023-12-16T16:35:44.571Z,0.00
2023-12-16T16:36:43.915Z,0.00
2023-12-16T16:37:44.254Z,0.00
2023-12-16T16:38:43.929Z,0.00
2023-12-16T16:39:43.872Z,0.00
2023-12-16T16:40:43.917Z,0.00
2023-12-16T16:41:43.930Z,0.00
2023-12-16T16:42:43.838Z,0.00
2023-12-16T16:43:43.825Z,0.00
2023-12-16T16:44:43.907Z,0.00
2023-12-16T16:45:43.848Z,0.00
2023-12-16T16:46:43.819Z,0.00
2023-12-16T16:47:44.205Z,0.00
2023-12-16T16:48:43.887Z,0.00
2023-12-16T16:49:43.836Z,0.00
2023-12-16T16:50:43.871Z,0.00
2023-12-16T16:51:43.756Z,0.00
2023-12-16T16:52:43.757Z,0.00
2023-12-16T16:53:43.801Z,0.00
2023-12-16T16:54:43.722Z,0.00
2023-12-16T16:55:43.729Z,0.00
2023-12-16T16:56:43.727Z,0.00
2023-12-16T16:57:43.678Z,0.00
2023-12-16T16:58:43.693Z,0.00
2023-12-16T16:59:43.700Z,0.00
2023-12-16T17:00:43.699Z,0.00
2023-12-16T17:01:43.638Z,0.00
2023-12-16T17:02:43.676Z,0.00
2023-12-16T17:03:43.635Z,0.00
2023-12-16T17:04:43.649Z,0.00
2023-12-16T17:05:43.632Z,0.00
2023-12-16T17:06:43.617Z,0.00
2023-12-16T17:07:43.563Z,0.00
2023-12-16T17:08:43.632Z,0.00
2023-12-16T17:09:43.619Z,0.00
2023-12-16T17:10:43.572Z,0.00
2023-12-16T17:11:43.542Z,0.00
2023-12-16T17:12:43.523Z,0.00